createdAt,value
2022-10-28T00:00:29.841Z,17.28
2022-10-28T00:01:29.863Z,17.30
2022-10-28T00:02:29.858Z,17.32
2022-10-28T00:03:29.815Z,17.33
2022-10-28T00:05:29.801Z,17.35
2022-10-28T00:06:29.764Z,17.33
2022-10-28T00:07:29.741Z,17.35
2022-10-28T00:08:29.727Z,17.35
2022-10-28T00:09:29.734Z,17.35
2022-10-28T00:10:29.719Z,17.36
2022-10-28T00:11:29.713Z,17.35
2022-10-28T00:12:29.695Z,17.35
2022-10-28T00:13:29.664Z,17.35
2022-10-28T00:14:29.707Z,17.35
2022-10-28T00:15:29.657Z,17.36
2022-10-28T00:16:29.624Z,17.36
2022-10-28T00:17:29.628Z,17.38
2022-10-28T00:18:29.628Z,17.36
2022-10-28T00:19:29.603Z,17.36
2022-10-28T00:20:29.583Z,17.36
2022-10-28T00:21:29.575Z,17.38
2022-10-28T00:22:29.561Z,17.39
2022-10-28T00:23:29.550Z,17.39
2022-10-28T00:24:29.533Z,17.38
2022-10-28T00:25:29.525Z,17.39
2022-10-28T00:26:29.505Z,17.40
2022-10-28T00:27:29.490Z,17.40
2022-10-28T00:28:29.469Z,17.40
2022-10-28T00:29:29.475Z,17.42
2022-10-28T00:31:29.438Z,17.40
2022-10-28T00:32:29.448Z,17.40
2022-10-28T00:33:29.403Z,17.39
2022-10-28T00:34:29.382Z,17.39
2022-10-28T00:35:29.423Z,17.40
2022-10-28T00:36:29.362Z,17.39
2022-10-28T00:37:29.352Z,17.39
2022-10-28T00:38:29.333Z,17.39
2022-10-28T00:39:29.355Z,17.38
2022-10-28T00:40:29.310Z,17.38
2022-10-28T00:41:29.311Z,17.38
2022-10-28T00:42:29.290Z,17.36
2022-10-28T00:43:29.274Z,17.38
2022-10-28T00:44:29.254Z,17.39
2022-10-28T00:45:29.253Z,17.39
2022-10-28T00:46:29.263Z,17.40
2022-10-28T00:47:29.220Z,17.40
2022-10-28T00:48:29.225Z,17.40
2022-10-28T00:49:29.203Z,17.40
2022-10-28T00:50:29.178Z,17.42
2022-10-28T00:51:29.182Z,17.42
2022-10-28T00:52:29.193Z,17.45
2022-10-28T00:53:29.144Z,17.46
2022-10-28T00:54:29.120Z,17.46
2022-10-28T00:55:29.126Z,17.49
2022-10-28T00:56:29.111Z,17.49
2022-10-28T00:57:29.098Z,17.46
2022-10-28T00:58:29.092Z,17.47
2022-10-28T00:59:29.065Z,17.49
2022-10-28T01:00:29.060Z,17.49
2022-10-28T01:01:29.190Z,17.49
2022-10-28T01:02:29.085Z,17.49
2022-10-28T01:03:29.027Z,17.49
2022-10-28T01:04:29.003Z,17.49
2022-10-28T01:05:28.981Z,17.47
2022-10-28T01:06:28.983Z,17.47
2022-10-28T01:07:28.990Z,17.46
2022-10-28T01:08:28.930Z,17.46
2022-10-28T01:09:28.947Z,17.46
2022-10-28T01:10:28.942Z,17.46
2022-10-28T01:11:28.906Z,17.45
2022-10-28T01:12:28.898Z,17.47
2022-10-28T01:13:28.890Z,17.47
2022-10-28T01:14:28.861Z,17.49
2022-10-28T01:15:28.858Z,17.49
2022-10-28T01:16:28.836Z,17.47
2022-10-28T01:17:28.837Z,17.49
2022-10-28T01:18:28.840Z,17.49
2022-10-28T01:19:28.810Z,17.51
2022-10-28T01:20:28.787Z,17.51
2022-10-28T01:21:28.775Z,17.51
2022-10-28T01:22:28.776Z,17.53
2022-10-28T01:23:28.759Z,17.54
2022-10-28T01:24:28.750Z,17.54
2022-10-28T01:25:28.729Z,17.54
2022-10-28T01:26:28.722Z,17.54
2022-10-28T01:27:28.739Z,17.55
2022-10-28T01:28:28.701Z,17.55
2022-10-28T01:29:28.665Z,17.57
2022-10-28T01:30:28.662Z,17.58
2022-10-28T01:31:28.648Z,17.60
2022-10-28T01:32:28.619Z,17.58
2022-10-28T01:33:28.627Z,17.57
2022-10-28T01:34:28.597Z,17.60
2022-10-28T01:35:28.602Z,17.60
2022-10-28T01:36:28.585Z,17.62
2022-10-28T01:37:28.590Z,17.65
2022-10-28T01:38:28.588Z,17.63
2022-10-28T01:39:28.536Z,17.63
2022-10-28T01:40:28.531Z,17.60
2022-10-28T01:41:28.584Z,17.62
2022-10-28T01:42:28.487Z,17.58
2022-10-28T01:43:28.491Z,17.57
2022-10-28T01:44:28.478Z,17.55
2022-10-28T01:45:28.454Z,17.55
2022-10-28T01:46:28.437Z,17.54
2022-10-28T01:47:28.435Z,17.54
2022-10-28T01:48:28.460Z,17.53
2022-10-28T01:49:28.418Z,17.49
2022-10-28T01:50:28.395Z,17.51
2022-10-28T01:51:28.376Z,17.51
2022-10-28T01:52:28.370Z,17.49
2022-10-28T01:53:28.364Z,17.51
2022-10-28T01:54:28.349Z,17.49
2022-10-28T01:55:28.338Z,17.49
2022-10-28T01:56:28.332Z,17.47
2022-10-28T01:57:28.320Z,17.47
2022-10-28T01:58:28.285Z,17.49
2022-10-28T01:59:28.299Z,17.47
2022-10-28T02:00:28.345Z,17.47
2022-10-28T02:01:28.497Z,17.46
2022-10-28T02:02:28.244Z,17.46
2022-10-28T02:03:28.248Z,17.45
2022-10-28T02:04:28.201Z,17.45
2022-10-28T02:05:28.195Z,17.46
2022-10-28T02:06:28.207Z,17.46
2022-10-28T02:07:28.188Z,17.46
2022-10-28T02:08:28.178Z,17.46
2022-10-28T02:09:28.162Z,17.45
2022-10-28T02:10:28.161Z,17.46
2022-10-28T02:11:28.153Z,17.46
2022-10-28T02:12:28.134Z,17.45
2022-10-28T02:13:28.131Z,17.45
2022-10-28T02:14:28.064Z,17.43
2022-10-28T02:15:28.085Z,17.42
2022-10-28T02:16:28.072Z,17.40
2022-10-28T02:17:28.067Z,17.40
2022-10-28T02:18:28.053Z,17.39
2022-10-28T02:19:28.025Z,17.39
2022-10-28T02:20:28.010Z,17.38
2022-10-28T02:21:28.024Z,17.36
2022-10-28T02:22:27.972Z,17.36
2022-10-28T02:23:27.991Z,17.38
2022-10-28T02:24:27.954Z,17.38
2022-10-28T02:25:27.944Z,17.36
2022-10-28T02:26:27.938Z,17.35
2022-10-28T02:27:27.917Z,17.35
2022-10-28T02:28:27.904Z,17.33
2022-10-28T02:29:27.904Z,17.33
2022-10-28T02:30:27.877Z,17.30
2022-10-28T02:31:27.874Z,17.30
2022-10-28T02:32:27.863Z,17.28
2022-10-28T02:33:27.860Z,17.28
2022-10-28T02:34:27.814Z,17.25
2022-10-28T02:35:27.820Z,17.22
2022-10-28T02:36:27.869Z,17.22
2022-10-28T02:37:27.815Z,17.21
2022-10-28T02:38:27.753Z,17.20
2022-10-28T02:39:27.848Z,17.18
2022-10-28T02:40:27.747Z,17.17
2022-10-28T02:41:27.724Z,17.15
2022-10-28T02:42:27.742Z,17.15
2022-10-28T02:43:27.707Z,17.15
2022-10-28T02:44:27.707Z,17.14
2022-10-28T02:45:27.684Z,17.14
2022-10-28T02:46:27.677Z,17.14
2022-10-28T02:47:27.702Z,17.14
2022-10-28T02:48:27.639Z,17.14
2022-10-28T02:49:27.626Z,17.14
2022-10-28T02:50:27.631Z,17.12
2022-10-28T02:51:27.592Z,17.15
2022-10-28T02:52:27.618Z,17.14
2022-10-28T02:53:27.609Z,17.10
2022-10-28T02:54:27.575Z,17.10
2022-10-28T02:55:27.551Z,17.12
2022-10-28T02:56:27.553Z,17.10
2022-10-28T02:57:27.543Z,17.09
2022-10-28T02:58:27.511Z,17.07
2022-10-28T02:59:27.484Z,17.03
2022-10-28T03:00:27.526Z,17.05
2022-10-28T03:01:27.573Z,17.05
2022-10-28T03:02:27.485Z,17.05
2022-10-28T03:03:27.445Z,17.03
2022-10-28T03:04:27.428Z,17.02
2022-10-28T03:05:27.401Z,17.00
2022-10-28T03:06:27.405Z,17.00
2022-10-28T03:07:27.455Z,17.00
2022-10-28T03:08:27.394Z,16.98
2022-10-28T03:09:27.351Z,16.98
2022-10-28T03:10:27.353Z,16.92
2022-10-28T03:11:27.344Z,16.95
2022-10-28T03:12:27.332Z,16.95
2022-10-28T03:13:27.334Z,16.91
2022-10-28T03:14:27.311Z,16.91
2022-10-28T03:15:27.310Z,16.88
2022-10-28T03:16:27.272Z,16.87
2022-10-28T03:17:27.250Z,16.87
2022-10-28T03:18:27.234Z,16.84
2022-10-28T03:19:27.233Z,16.84
2022-10-28T03:20:27.219Z,16.82
2022-10-28T03:21:27.206Z,16.84
2022-10-28T03:22:27.188Z,16.81
2022-10-28T03:23:27.174Z,16.82
2022-10-28T03:24:27.190Z,16.80
2022-10-28T03:25:27.170Z,16.80
2022-10-28T03:26:27.143Z,16.78
2022-10-28T03:27:27.110Z,16.80
2022-10-28T03:28:27.104Z,16.78
2022-10-28T03:29:27.122Z,16.78
2022-10-28T03:30:27.092Z,16.77
2022-10-28T03:31:27.059Z,16.77
2022-10-28T03:32:27.059Z,16.78
2022-10-28T03:33:27.064Z,16.77
2022-10-28T03:34:27.047Z,16.78
2022-10-28T03:35:27.006Z,16.77
2022-10-28T03:36:27.012Z,16.75
2022-10-28T03:37:26.979Z,16.77
2022-10-28T03:38:26.990Z,16.77
2022-10-28T03:39:26.969Z,16.77
2022-10-28T03:40:26.973Z,16.75
2022-10-28T03:41:26.991Z,16.75
2022-10-28T03:42:26.932Z,16.75
2022-10-28T03:43:26.930Z,16.75
2022-10-28T03:44:26.902Z,16.75
2022-10-28T03:45:26.917Z,16.73
2022-10-28T03:46:27.672Z,16.72
2022-10-28T03:47:26.859Z,16.72
2022-10-28T03:48:26.862Z,16.69
2022-10-28T03:49:26.851Z,16.69
2022-10-28T03:50:26.808Z,16.67
2022-10-28T03:51:26.840Z,16.65
2022-10-28T03:52:26.800Z,16.63
2022-10-28T03:53:27.804Z,16.60
2022-10-28T03:54:26.772Z,16.59
2022-10-28T03:55:26.791Z,16.57
2022-10-28T03:56:26.751Z,16.54
2022-10-28T03:57:26.742Z,16.55
2022-10-28T03:58:26.732Z,16.55
2022-10-28T03:59:26.708Z,16.57
2022-10-28T04:00:26.718Z,16.55
2022-10-28T04:01:26.890Z,16.57
2022-10-28T04:02:26.713Z,16.57
2022-10-28T04:03:26.651Z,16.55
2022-10-28T04:04:29.918Z,16.57
2022-10-28T04:05:26.615Z,16.59
2022-10-28T04:06:26.624Z,16.57
2022-10-28T04:07:26.587Z,16.57
2022-10-28T04:08:26.597Z,16.59
2022-10-28T04:09:26.580Z,16.59
2022-10-28T04:10:26.540Z,16.62
2022-10-28T04:11:26.547Z,16.62
2022-10-28T04:12:26.548Z,16.65
2022-10-28T04:13:26.508Z,16.66
2022-10-28T04:14:26.488Z,16.69
2022-10-28T04:15:26.498Z,16.69
2022-10-28T04:16:26.457Z,16.69
2022-10-28T04:17:26.480Z,16.72
2022-10-28T04:18:26.460Z,16.72
2022-10-28T04:19:26.438Z,16.72
2022-10-28T04:20:26.421Z,16.70
2022-10-28T04:21:26.394Z,16.75
2022-10-28T04:22:26.386Z,16.78
2022-10-28T04:23:26.412Z,16.82
2022-10-28T04:24:26.357Z,16.84
2022-10-28T04:25:27.091Z,16.88
2022-10-28T04:26:26.332Z,16.90
2022-10-28T04:27:26.315Z,16.95
2022-10-28T04:28:26.319Z,16.95
2022-10-28T04:29:26.329Z,16.98
2022-10-28T04:30:26.274Z,16.96
2022-10-28T04:31:26.263Z,16.98
2022-10-28T04:32:26.268Z,16.96
2022-10-28T04:33:26.253Z,16.95
2022-10-28T04:34:26.258Z,16.98
2022-10-28T04:35:26.224Z,16.95
2022-10-28T04:36:26.201Z,16.92
2022-10-28T04:37:26.205Z,16.95
2022-10-28T04:38:26.210Z,16.95
2022-10-28T04:39:26.178Z,16.92
2022-10-28T04:40:26.165Z,16.92
2022-10-28T04:41:26.138Z,16.92
2022-10-28T04:42:26.136Z,16.92
2022-10-28T04:43:26.131Z,16.91
2022-10-28T04:44:26.107Z,16.91
2022-10-28T04:45:26.097Z,16.88
2022-10-28T04:46:26.086Z,16.87
2022-10-28T04:47:26.066Z,16.90
2022-10-28T04:48:26.081Z,16.87
2022-10-28T04:49:26.037Z,16.87
2022-10-28T04:50:26.043Z,16.85
2022-10-28T04:51:26.027Z,16.85
2022-10-28T04:52:26.009Z,16.87
2022-10-28T04:53:26.004Z,16.87
2022-10-28T04:54:25.978Z,16.88
2022-10-28T04:55:25.969Z,16.88
2022-10-28T04:56:25.963Z,16.90
2022-10-28T04:57:25.924Z,16.88
2022-10-28T04:58:25.944Z,16.87
2022-10-28T04:59:25.906Z,16.87
2022-10-28T05:00:25.883Z,16.82
2022-10-28T05:01:25.978Z,16.82
2022-10-28T05:02:25.929Z,16.81
2022-10-28T05:03:25.874Z,16.80
2022-10-28T05:04:25.833Z,16.77
2022-10-28T05:05:25.846Z,16.75
2022-10-28T05:06:25.812Z,16.73
2022-10-28T05:07:25.835Z,16.73
2022-10-28T05:08:25.792Z,16.70
2022-10-28T05:09:25.785Z,16.69
2022-10-28T05:10:25.797Z,16.66
2022-10-28T05:11:25.755Z,16.66
2022-10-28T05:12:25.735Z,16.65
2022-10-28T05:13:25.737Z,16.63
2022-10-28T05:14:25.725Z,16.65
2022-10-28T05:15:25.691Z,16.63
2022-10-28T05:16:25.673Z,16.63
2022-10-28T05:17:25.675Z,16.63
2022-10-28T05:18:25.665Z,16.62
2022-10-28T05:19:25.659Z,16.60
2022-10-28T05:20:25.643Z,16.59
2022-10-28T05:21:25.611Z,16.59
2022-10-28T05:22:33.623Z,16.55
2022-10-28T05:23:30.683Z,16.54
2022-10-28T05:24:27.263Z,16.52
2022-10-28T05:25:27.263Z,16.52
2022-10-28T05:26:25.550Z,16.51
2022-10-28T05:27:25.539Z,16.51
2022-10-28T05:28:25.541Z,16.50
2022-10-28T05:29:27.736Z,16.51
2022-10-28T05:30:26.497Z,16.50
2022-10-28T05:31:25.506Z,16.50
2022-10-28T05:32:25.470Z,16.50
2022-10-28T05:33:25.455Z,16.50
2022-10-28T05:34:25.442Z,16.48
2022-10-28T05:35:25.423Z,16.48
2022-10-28T05:36:25.436Z,16.48
2022-10-28T05:37:25.416Z,16.48
2022-10-28T05:38:25.406Z,16.47
2022-10-28T05:39:25.362Z,16.45
2022-10-28T05:40:25.376Z,16.44
2022-10-28T05:41:25.444Z,16.42
2022-10-28T05:42:25.332Z,16.40
2022-10-28T05:43:25.346Z,16.40
2022-10-28T05:44:25.332Z,16.37
2022-10-28T05:45:25.393Z,16.34
2022-10-28T05:46:25.305Z,16.33
2022-10-28T05:47:25.286Z,16.30
2022-10-28T05:48:25.284Z,16.30
2022-10-28T05:49:25.233Z,16.30
2022-10-28T05:50:25.236Z,16.27
2022-10-28T05:51:25.235Z,16.27
2022-10-28T05:52:25.216Z,16.25
2022-10-28T05:53:25.244Z,16.25
2022-10-28T05:54:25.185Z,16.25
2022-10-28T05:55:25.174Z,16.23
2022-10-28T05:56:25.177Z,16.23
2022-10-28T05:57:25.157Z,16.23
2022-10-28T05:58:27.063Z,16.22
2022-10-28T05:59:25.122Z,16.18
2022-10-28T06:00:25.099Z,16.16
2022-10-28T06:01:25.179Z,16.14
2022-10-28T06:02:25.070Z,16.14
2022-10-28T06:03:30.095Z,16.14
2022-10-28T06:04:26.051Z,16.11
2022-10-28T06:05:25.022Z,16.13
2022-10-28T06:06:25.018Z,16.14
2022-10-28T06:07:25.014Z,16.13
2022-10-28T06:08:24.993Z,16.14
2022-10-28T06:09:24.992Z,16.14
2022-10-28T06:10:24.981Z,16.14
2022-10-28T06:11:23.434Z,16.22
2022-10-28T06:12:23.471Z,16.23
2022-10-28T06:13:23.402Z,16.27
2022-10-28T06:14:23.390Z,16.30
2022-10-28T06:15:23.383Z,16.30
2022-10-28T06:16:23.350Z,16.30
2022-10-28T06:17:23.352Z,16.32
2022-10-28T06:18:23.356Z,16.33
2022-10-28T06:19:23.342Z,16.32
2022-10-28T06:20:23.301Z,16.32
2022-10-28T06:21:23.297Z,16.33
2022-10-28T06:22:23.298Z,16.33
2022-10-28T06:23:23.262Z,16.34
2022-10-28T06:24:23.263Z,16.34
2022-10-28T06:25:23.249Z,16.33
2022-10-28T06:26:23.235Z,16.34
2022-10-28T06:27:23.230Z,16.34
2022-10-28T06:28:23.216Z,16.34
2022-10-28T06:29:23.219Z,16.36
2022-10-28T06:30:23.185Z,16.37
2022-10-28T06:31:23.182Z,16.41
2022-10-28T06:32:23.176Z,16.42
2022-10-28T06:33:23.174Z,16.42
2022-10-28T06:34:23.142Z,16.44
2022-10-28T06:35:23.146Z,16.45
2022-10-28T06:36:23.116Z,16.44
2022-10-28T06:37:23.108Z,16.45
2022-10-28T06:38:23.083Z,16.47
2022-10-28T06:39:23.117Z,16.45
2022-10-28T06:40:23.089Z,16.47
2022-10-28T06:41:23.066Z,16.48
2022-10-28T06:42:23.039Z,16.48
2022-10-28T06:43:23.012Z,16.47
2022-10-28T06:44:23.043Z,16.48
2022-10-28T06:45:22.989Z,16.45
2022-10-28T06:46:23.005Z,16.47
2022-10-28T06:47:24.499Z,16.44
2022-10-28T06:48:24.482Z,16.44
2022-10-28T06:49:24.484Z,16.44
2022-10-28T06:50:24.439Z,16.41
2022-10-28T06:51:24.444Z,16.42
2022-10-28T06:52:24.417Z,16.42
2022-10-28T06:53:24.431Z,16.44
2022-10-28T06:54:24.421Z,16.45
2022-10-28T06:55:24.395Z,16.45
2022-10-28T06:56:24.365Z,16.48
2022-10-28T06:57:26.883Z,16.48
2022-10-28T06:58:24.369Z,16.51
2022-10-28T06:59:24.336Z,16.52
2022-10-28T07:00:24.355Z,16.54
2022-10-28T07:01:24.418Z,16.55
2022-10-28T07:02:24.386Z,16.59
2022-10-28T07:03:24.292Z,16.60
2022-10-28T07:04:24.304Z,16.63
2022-10-28T07:05:24.262Z,16.66
2022-10-28T07:06:24.251Z,16.65
2022-10-28T07:07:24.254Z,16.66
2022-10-28T07:08:24.277Z,16.66
2022-10-28T07:09:24.224Z,16.66
2022-10-28T07:10:24.326Z,16.67
2022-10-28T07:11:24.183Z,16.70
2022-10-28T07:12:24.198Z,16.72
2022-10-28T07:13:24.184Z,16.73
2022-10-28T07:14:24.166Z,16.75
2022-10-28T07:15:24.139Z,16.77
2022-10-28T07:16:24.132Z,16.77
2022-10-28T07:17:24.124Z,16.78
2022-10-28T07:18:24.112Z,16.77
2022-10-28T07:19:24.116Z,16.75
2022-10-28T07:20:24.161Z,16.77
2022-10-28T07:21:24.062Z,16.78
2022-10-28T07:22:25.799Z,16.78
2022-10-28T07:23:24.049Z,16.78
2022-10-28T07:24:24.090Z,16.80
2022-10-28T07:25:24.023Z,16.80
2022-10-28T07:26:24.046Z,16.81
2022-10-28T07:27:23.983Z,16.81
2022-10-28T07:28:23.965Z,16.82
2022-10-28T07:29:23.964Z,16.82
2022-10-28T07:30:24.043Z,16.82
2022-10-28T07:31:23.947Z,16.84
2022-10-28T07:32:23.929Z,16.85
2022-10-28T07:33:23.918Z,16.88
2022-10-28T07:34:26.982Z,16.92
2022-10-28T07:35:23.886Z,16.98
2022-10-28T07:36:23.911Z,17.00
2022-10-28T07:37:23.891Z,17.03
2022-10-28T07:38:23.870Z,17.07
2022-10-28T07:39:23.903Z,17.10
2022-10-28T07:40:23.900Z,17.15
2022-10-28T07:41:23.833Z,17.17
2022-10-28T07:42:23.803Z,17.20
2022-10-28T07:43:23.777Z,17.22
2022-10-28T07:44:23.778Z,17.25
2022-10-28T07:45:23.790Z,17.25
2022-10-28T07:46:23.726Z,17.25
2022-10-28T07:47:23.718Z,17.25
2022-10-28T07:48:23.741Z,17.27
2022-10-28T07:49:23.700Z,17.28
2022-10-28T07:50:23.705Z,17.28
2022-10-28T07:51:23.676Z,17.32
2022-10-28T07:52:23.726Z,17.35
2022-10-28T07:53:26.302Z,17.36
2022-10-28T07:54:24.664Z,17.39
2022-10-28T07:55:23.630Z,17.43
2022-10-28T07:56:23.635Z,17.46
2022-10-28T07:57:23.588Z,17.49
2022-10-28T07:58:23.616Z,17.53
2022-10-28T07:59:26.623Z,17.55
2022-10-28T08:00:23.560Z,17.58
2022-10-28T08:01:23.665Z,17.60
2022-10-28T08:02:23.531Z,17.60
2022-10-28T08:03:27.784Z,17.62
2022-10-28T08:04:24.596Z,17.63
2022-10-28T08:05:24.411Z,17.66
2022-10-28T08:06:23.540Z,17.68
2022-10-28T08:07:23.445Z,17.73
2022-10-28T08:08:23.460Z,17.76
2022-10-28T08:09:23.401Z,17.76
2022-10-28T08:10:23.420Z,17.79
2022-10-28T08:11:24.114Z,17.81
2022-10-28T08:12:23.374Z,17.84
2022-10-28T08:13:23.337Z,17.86
2022-10-28T08:14:23.345Z,17.89
2022-10-28T08:15:23.372Z,17.89
2022-10-28T08:16:23.298Z,17.95
2022-10-28T08:17:23.319Z,17.98
2022-10-28T08:18:23.321Z,18.02
2022-10-28T08:19:23.315Z,18.07
2022-10-28T08:20:23.255Z,18.10
2022-10-28T08:21:23.245Z,18.11
2022-10-28T08:22:23.383Z,18.13
2022-10-28T08:23:23.271Z,18.16
2022-10-28T08:24:23.189Z,18.16
2022-10-28T08:25:23.203Z,18.17
2022-10-28T08:26:24.161Z,18.19
2022-10-28T08:27:23.249Z,18.20
2022-10-28T08:28:23.140Z,18.19
2022-10-28T08:29:27.622Z,18.20
2022-10-28T08:30:24.209Z,18.20
2022-10-28T08:31:23.104Z,18.23
2022-10-28T08:32:23.078Z,18.23
2022-10-28T08:33:23.081Z,18.23
2022-10-28T08:34:23.087Z,18.23
2022-10-28T08:35:23.060Z,18.21
2022-10-28T08:36:23.040Z,18.20
2022-10-28T08:37:23.084Z,18.17
2022-10-28T08:38:23.001Z,18.16
2022-10-28T08:39:23.057Z,18.17
2022-10-28T08:40:22.989Z,18.16
2022-10-28T08:41:22.990Z,18.14
2022-10-28T08:42:22.947Z,18.14
2022-10-28T08:43:34.902Z,18.10
2022-10-28T08:44:23.962Z,18.11
2022-10-28T08:45:22.910Z,18.11
2022-10-28T08:46:22.900Z,18.11
2022-10-28T08:47:22.927Z,18.11
2022-10-28T08:48:22.860Z,18.11
2022-10-28T08:49:22.882Z,18.14
2022-10-28T08:50:22.853Z,18.14
2022-10-28T08:51:32.090Z,18.13
2022-10-28T08:52:22.858Z,18.14
2022-10-28T08:53:22.805Z,18.13
2022-10-28T08:54:23.527Z,18.16
2022-10-28T08:55:22.855Z,18.17
2022-10-28T08:56:22.809Z,18.21
2022-10-28T08:57:22.764Z,18.23
2022-10-28T08:58:22.765Z,18.25
2022-10-28T08:59:22.802Z,18.28
2022-10-28T09:00:22.775Z,18.28
2022-10-28T09:01:22.910Z,18.31
2022-10-28T09:02:22.728Z,18.34
2022-10-28T09:03:22.722Z,18.36
2022-10-28T09:04:22.700Z,18.42
2022-10-28T09:05:22.716Z,18.46
2022-10-28T09:06:22.638Z,18.47
2022-10-28T09:07:22.669Z,18.50
2022-10-28T09:08:22.629Z,18.54
2022-10-28T09:09:22.655Z,18.57
2022-10-28T09:10:22.597Z,18.60
2022-10-28T09:11:26.352Z,18.69
2022-10-28T09:12:22.600Z,18.72
2022-10-28T09:13:22.560Z,18.75
2022-10-28T09:14:22.557Z,18.76
2022-10-28T09:15:22.570Z,18.79
2022-10-28T09:16:22.686Z,18.86
2022-10-28T09:17:22.526Z,18.94
2022-10-28T09:18:22.507Z,19.02
2022-10-28T09:19:22.488Z,19.07
2022-10-28T09:20:22.459Z,19.12
2022-10-28T09:21:22.434Z,19.15
2022-10-28T09:22:22.436Z,19.16
2022-10-28T09:23:22.459Z,19.17
2022-10-28T09:24:22.421Z,19.17
2022-10-28T09:25:22.478Z,19.20
2022-10-28T09:26:22.376Z,19.23
2022-10-28T09:27:23.349Z,19.23
2022-10-28T09:28:22.367Z,19.24
2022-10-28T09:29:22.351Z,19.25
2022-10-28T09:30:22.342Z,19.27
2022-10-28T09:31:22.547Z,19.28
2022-10-28T09:32:22.308Z,19.31
2022-10-28T09:33:22.306Z,19.35
2022-10-28T09:34:22.348Z,19.39
2022-10-28T09:35:22.259Z,19.42
2022-10-28T09:36:22.256Z,19.47
2022-10-28T09:37:22.348Z,19.47
2022-10-28T09:38:22.251Z,19.50
2022-10-28T09:39:25.377Z,19.52
2022-10-28T09:40:23.206Z,19.55
2022-10-28T09:41:22.196Z,19.53
2022-10-28T09:42:22.325Z,19.58
2022-10-28T09:43:22.274Z,19.60
2022-10-28T09:44:22.201Z,19.62
2022-10-28T09:45:25.659Z,19.64
2022-10-28T09:46:22.212Z,19.68
2022-10-28T09:47:22.121Z,19.71
2022-10-28T09:48:22.099Z,19.70
2022-10-28T09:49:22.088Z,19.68
2022-10-28T09:50:22.079Z,19.67
2022-10-28T09:51:22.057Z,19.65
2022-10-28T09:52:22.039Z,19.67
2022-10-28T09:53:22.194Z,19.65
2022-10-28T09:54:22.068Z,19.67
2022-10-28T09:55:22.078Z,19.68
2022-10-28T09:56:22.014Z,19.70
2022-10-28T09:57:22.006Z,19.75
2022-10-28T09:58:21.995Z,19.76
2022-10-28T09:59:22.157Z,19.78
2022-10-28T10:00:21.963Z,19.80
2022-10-28T10:01:21.987Z,19.83
2022-10-28T10:02:21.958Z,19.85
2022-10-28T10:03:21.936Z,19.90
2022-10-28T10:04:21.926Z,19.95
2022-10-28T10:05:21.894Z,19.98
2022-10-28T10:06:21.907Z,20.04
2022-10-28T10:07:21.852Z,20.04
2022-10-28T10:08:21.923Z,20.05
2022-10-28T10:09:21.925Z,20.10
2022-10-28T10:10:21.909Z,20.12
2022-10-28T10:11:21.807Z,20.12
2022-10-28T10:12:21.817Z,20.12
2022-10-28T10:13:21.764Z,20.12
2022-10-28T10:14:22.016Z,20.12
2022-10-28T10:15:21.892Z,20.12
2022-10-28T10:16:21.760Z,20.12
2022-10-28T10:17:21.790Z,20.13
2022-10-28T10:18:21.740Z,20.15
2022-10-28T10:19:21.758Z,20.15
2022-10-28T10:20:21.677Z,20.16
2022-10-28T10:21:21.717Z,20.15
2022-10-28T10:22:21.714Z,20.16
2022-10-28T10:23:21.677Z,20.17
2022-10-28T10:24:21.688Z,20.17
2022-10-28T10:27:00.794Z,20.15
2022-10-28T10:28:00.807Z,20.12
2022-10-28T10:29:00.760Z,20.13
2022-10-28T10:30:01.004Z,20.15
2022-10-28T10:31:00.744Z,20.19
2022-10-28T10:32:00.727Z,20.19
2022-10-28T10:33:00.713Z,20.22
2022-10-28T10:34:00.690Z,20.20
2022-10-28T10:35:00.744Z,20.23
2022-10-28T10:36:01.523Z,20.23
2022-10-28T10:37:00.704Z,20.25
2022-10-28T10:38:00.663Z,20.23
2022-10-28T10:39:00.640Z,20.20
2022-10-28T10:40:00.653Z,20.23
2022-10-28T10:41:00.601Z,20.26
2022-10-28T10:42:00.622Z,20.30
2022-10-28T10:43:12.830Z,20.30
2022-10-28T10:44:01.644Z,20.30
2022-10-28T10:45:00.602Z,20.31
2022-10-28T10:46:00.563Z,20.34
2022-10-28T10:47:05.101Z,20.34
2022-10-28T10:48:01.501Z,20.35
2022-10-28T10:49:00.632Z,20.38
2022-10-28T10:50:00.485Z,20.41
2022-10-28T10:51:00.512Z,20.44
2022-10-28T10:52:00.481Z,20.46
2022-10-28T10:53:00.456Z,20.51
2022-10-28T10:54:00.444Z,20.51
2022-10-28T10:55:00.412Z,20.54
2022-10-28T10:56:00.439Z,20.54
2022-10-28T10:57:00.403Z,20.57
2022-10-28T10:58:00.375Z,20.60
2022-10-28T10:59:00.541Z,20.60
2022-10-28T11:00:00.604Z,20.60
2022-10-28T11:01:00.354Z,20.60
2022-10-28T11:02:00.577Z,20.58
2022-10-28T11:03:00.375Z,20.57
2022-10-28T11:04:00.323Z,20.58
2022-10-28T11:05:00.278Z,20.56
2022-10-28T11:06:21.866Z,20.56
2022-10-28T11:07:01.282Z,20.54
2022-10-28T11:08:00.294Z,20.56
2022-10-28T11:09:00.276Z,20.57
2022-10-28T11:10:00.260Z,20.60
2022-10-28T11:11:00.878Z,20.63
2022-10-28T11:12:00.200Z,20.64
2022-10-28T11:13:00.170Z,20.68
2022-10-28T11:14:00.180Z,20.72
2022-10-28T11:15:00.233Z,20.73
2022-10-28T11:16:00.381Z,20.76
2022-10-28T11:17:00.344Z,20.79
2022-10-28T11:18:01.207Z,20.85
2022-10-28T11:19:00.257Z,20.88
2022-10-28T11:20:00.377Z,20.96
2022-10-28T11:21:00.085Z,20.97
2022-10-28T11:22:00.092Z,21.00
2022-10-28T11:23:00.068Z,21.01
2022-10-28T11:24:00.429Z,21.05
2022-10-28T11:25:00.010Z,21.03
2022-10-28T11:26:00.345Z,21.08
2022-10-28T11:27:00.013Z,21.13
2022-10-28T11:28:01.672Z,21.16
2022-10-28T11:29:00.013Z,21.21
2022-10-28T11:29:59.972Z,21.27
2022-10-28T11:31:00.010Z,21.31
2022-10-28T11:31:59.994Z,21.33
2022-10-28T11:33:08.429Z,21.34
2022-10-28T11:34:01.075Z,21.34
2022-10-28T11:34:59.909Z,21.37
2022-10-28T11:35:59.881Z,21.40
2022-10-28T11:37:00.139Z,21.43
2022-10-28T11:37:59.860Z,21.49
2022-10-28T11:38:59.839Z,21.53
2022-10-28T11:39:59.820Z,21.56
2022-10-28T11:40:59.895Z,21.59
2022-10-28T11:41:59.902Z,21.64
2022-10-28T11:42:59.898Z,21.67
2022-10-28T11:44:04.953Z,21.68
2022-10-28T11:45:00.807Z,21.66
2022-10-28T11:45:59.772Z,21.67
2022-10-28T11:47:04.068Z,21.66
2022-10-28T11:47:59.773Z,21.67
2022-10-28T11:48:59.713Z,21.67
2022-10-28T11:49:59.704Z,21.70
2022-10-28T11:50:59.682Z,21.70
2022-10-28T11:51:59.658Z,21.70
2022-10-28T11:52:59.715Z,21.73
2022-10-28T11:53:59.639Z,21.73
2022-10-28T11:54:59.653Z,21.71
2022-10-28T11:55:59.618Z,21.70
2022-10-28T11:56:59.600Z,21.70
2022-10-28T11:57:59.700Z,21.71
2022-10-28T11:58:59.808Z,21.68
2022-10-28T11:59:59.593Z,21.67
2022-10-28T12:00:59.661Z,21.64
2022-10-28T12:01:59.739Z,21.67
2022-10-28T12:03:00.180Z,21.66
2022-10-28T12:03:59.518Z,21.66
2022-10-28T12:04:59.510Z,21.66
2022-10-28T12:05:59.511Z,21.66
2022-10-28T12:06:59.476Z,21.64
2022-10-28T12:07:59.470Z,21.66
2022-10-28T12:08:59.571Z,21.68
2022-10-28T12:09:59.517Z,21.68
2022-10-28T12:10:59.429Z,21.71
2022-10-28T12:12:07.356Z,21.71
2022-10-28T12:12:59.729Z,21.74
2022-10-28T12:13:59.539Z,21.77
2022-10-28T12:14:59.395Z,21.79
2022-10-28T12:15:59.356Z,21.81
2022-10-28T12:16:59.346Z,21.83
2022-10-28T12:17:59.331Z,21.83
2022-10-28T12:18:59.448Z,21.82
2022-10-28T12:19:59.322Z,21.83
2022-10-28T12:20:59.384Z,21.85
2022-10-28T12:21:59.353Z,21.83
2022-10-28T12:22:59.323Z,21.89
2022-10-28T12:23:59.425Z,21.94
2022-10-28T12:24:59.358Z,21.99
2022-10-28T12:25:59.402Z,22.02
2022-10-28T12:26:59.404Z,22.04
2022-10-28T12:27:59.228Z,22.04
2022-10-28T12:28:59.214Z,22.04
2022-10-28T12:29:59.181Z,22.05
2022-10-28T12:30:59.392Z,22.08
2022-10-28T12:31:59.404Z,22.08
2022-10-28T12:32:59.201Z,22.09
2022-10-28T12:33:59.267Z,22.09
2022-10-28T12:35:00.123Z,22.11
2022-10-28T12:35:59.157Z,22.15
2022-10-28T12:36:59.113Z,22.15
2022-10-28T12:37:59.220Z,22.15
2022-10-28T12:38:59.153Z,22.12
2022-10-28T12:39:59.081Z,22.14
2022-10-28T12:40:59.052Z,22.14
2022-10-28T12:41:59.021Z,22.14
2022-10-28T12:42:59.013Z,22.17
2022-10-28T12:43:58.991Z,22.15
2022-10-28T12:44:59.021Z,22.12
2022-10-28T12:45:59.014Z,22.12
2022-10-28T12:46:58.991Z,22.12
2022-10-28T12:47:59.396Z,22.14
2022-10-28T12:48:58.971Z,22.15
2022-10-28T12:49:58.989Z,22.15
2022-10-28T12:50:58.956Z,22.15
2022-10-28T12:51:58.983Z,22.19
2022-10-28T12:52:58.898Z,22.19
2022-10-28T12:53:58.903Z,22.20
2022-10-28T12:54:58.885Z,22.20
2022-10-28T12:55:58.931Z,22.20